createdAt,value
2019-05-28T00:01:05.942Z,99.90
2019-05-28T00:03:37.204Z,99.90
2019-05-28T00:06:08.478Z,99.90
2019-05-28T00:08:39.725Z,99.90
2019-05-28T00:11:11.648Z,99.90
2019-05-28T00:13:42.646Z,99.90
2019-05-28T00:16:13.958Z,99.90
2019-05-28T00:18:45.527Z,99.90
2019-05-28T00:21:17.366Z,99.90
2019-05-28T00:23:48.351Z,99.90
2019-05-28T00:26:19.875Z,99.90
2019-05-28T00:28:51.422Z,99.90
2019-05-28T00:31:22.780Z,99.90
2019-05-28T00:33:54.323Z,99.90
2019-05-28T00:36:26.338Z,99.90
2019-05-28T00:38:57.717Z,99.90
2019-05-28T00:41:28.667Z,99.90
2019-05-28T00:44:00.211Z,99.90
2019-05-28T00:46:32.090Z,99.90
2019-05-28T00:49:03.679Z,99.90
2019-05-28T00:51:35.916Z,99.90
2019-05-28T00:54:07.277Z,99.90
2019-05-28T00:56:39.074Z,99.90
2019-05-28T00:59:10.910Z,99.90
2019-05-28T01:01:41.603Z,99.90
2019-05-28T01:04:13.067Z,99.90
2019-05-28T01:06:44.716Z,99.90
2019-05-28T01:09:16.438Z,99.90
2019-05-28T01:11:48.419Z,99.90
2019-05-28T01:14:19.962Z,99.90
2019-05-28T01:16:51.222Z,99.90
2019-05-28T01:19:22.181Z,99.90
2019-05-28T01:21:53.171Z,99.90
2019-05-28T01:24:24.436Z,99.90
2019-05-28T01:26:55.977Z,99.90
2019-05-28T01:29:27.805Z,99.90
2019-05-28T01:31:59.349Z,99.90
2019-05-28T01:34:30.657Z,99.90
2019-05-28T01:37:01.612Z,99.90
2019-05-28T01:39:33.725Z,99.90
2019-05-28T01:42:05.290Z,99.90
2019-05-28T01:44:37.173Z,99.90
2019-05-28T01:47:09.065Z,99.90
2019-05-28T01:49:40.618Z,99.90
2019-05-28T01:52:11.898Z,99.90
2019-05-28T01:54:42.899Z,99.90
2019-05-28T01:57:14.183Z,99.90
2019-05-28T01:59:46.067Z,99.90
2019-05-28T02:02:17.610Z,99.90
2019-05-28T02:04:49.163Z,99.90
2019-05-28T02:07:20.470Z,99.90
2019-05-28T02:09:51.979Z,99.90
2019-05-28T02:12:22.957Z,99.90
2019-05-28T02:14:54.214Z,99.90
2019-05-28T02:17:25.625Z,99.90
2019-05-28T02:19:57.015Z,99.90
2019-05-28T02:22:28.987Z,99.90
2019-05-28T02:25:00.307Z,99.90
2019-05-28T02:27:31.872Z,99.90
2019-05-28T02:30:03.502Z,99.90
2019-05-28T02:32:34.968Z,99.90
2019-05-28T02:35:07.718Z,99.90
2019-05-28T02:37:38.421Z,99.90
2019-05-28T02:40:11.195Z,99.90
2019-05-28T02:42:42.460Z,99.90
2019-05-28T02:45:15.823Z,99.90
2019-05-28T02:47:46.818Z,99.90
2019-05-28T02:50:20.230Z,99.90
2019-05-28T02:52:52.091Z,99.90
2019-05-28T02:55:23.322Z,99.90
2019-05-28T02:57:54.878Z,99.90
2019-05-28T03:00:26.584Z,99.90
2019-05-28T03:02:59.965Z,99.90
2019-05-28T03:05:32.956Z,99.90
2019-05-28T03:08:05.908Z,99.90
2019-05-28T03:11:01.620Z,99.90
2019-05-28T03:13:12.031Z,99.90
2019-05-28T03:15:47.242Z,99.90
2019-05-28T03:18:20.277Z,99.90
2019-05-28T03:20:53.660Z,99.90
2019-05-28T03:23:28.027Z,99.90
2019-05-28T03:26:00.140Z,99.90
2019-05-28T03:28:31.705Z,99.90
2019-05-28T03:31:02.650Z,99.90
2019-05-28T03:33:33.974Z,99.90
2019-05-28T03:36:06.061Z,99.90
2019-05-28T03:38:39.049Z,99.90
2019-05-28T03:41:10.184Z,99.90
2019-05-28T03:43:41.508Z,99.90
2019-05-28T03:46:13.393Z,99.90
2019-05-28T03:48:44.519Z,99.90
2019-05-28T03:51:16.333Z,99.90
2019-05-28T03:53:47.589Z,99.90
2019-05-28T03:56:19.195Z,99.90
2019-05-28T03:58:50.469Z,99.90
2019-05-28T04:01:21.701Z,99.90
2019-05-28T04:03:52.659Z,99.90
2019-05-28T04:06:24.049Z,99.90
2019-05-28T04:08:56.040Z,99.90
2019-05-28T04:11:41.957Z,99.90
2019-05-28T04:14:01.320Z,99.90
2019-05-28T04:16:34.517Z,99.90
2019-05-28T04:19:06.768Z,99.90
2019-05-28T04:21:38.587Z,99.90
2019-05-28T04:24:09.848Z,99.90
2019-05-28T04:26:41.977Z,99.90
2019-05-28T04:29:13.261Z,99.90
2019-05-28T04:31:44.881Z,99.90
2019-05-28T04:34:15.831Z,99.90
2019-05-28T04:39:53.575Z,99.90
2019-05-28T04:42:25.200Z,99.90
2019-05-28T04:44:57.095Z,99.90
2019-05-28T04:47:28.983Z,99.90
2019-05-28T04:49:59.995Z,99.90
2019-05-28T04:52:31.732Z,99.90
2019-05-28T04:55:03.680Z,99.90
2019-05-28T04:57:35.536Z,99.90
2019-05-28T05:00:08.706Z,99.90
2019-05-28T05:02:55.595Z,99.90
2019-05-28T05:05:15.239Z,99.90
2019-05-28T05:07:45.915Z,99.90
2019-05-28T05:10:19.443Z,99.90
2019-05-28T05:12:51.028Z,99.90
2019-05-28T05:15:22.305Z,99.90
2019-05-28T05:17:53.692Z,99.90
2019-05-28T05:20:24.704Z,99.90
2019-05-28T05:22:56.234Z,99.90
2019-05-28T05:25:28.144Z,99.90
2019-05-28T05:27:59.806Z,99.90
2019-05-28T05:30:31.060Z,99.90
2019-05-28T05:33:19.372Z,99.90
2019-05-28T05:35:35.853Z,99.90
2019-05-28T05:38:07.557Z,99.90
2019-05-28T05:40:38.501Z,99.90
2019-05-28T05:43:09.843Z,99.90
2019-05-28T05:45:41.563Z,99.90
2019-05-28T05:48:12.899Z,99.90
2019-05-28T05:50:45.372Z,99.90
2019-05-28T05:53:17.153Z,99.90
2019-05-28T05:55:48.160Z,99.90
2019-05-28T05:58:19.768Z,99.90
2019-05-28T06:00:51.011Z,99.90
2019-05-28T06:03:39.139Z,99.90
2019-05-28T06:05:55.717Z,99.90
2019-05-28T06:08:26.988Z,99.90
2019-05-28T06:10:58.259Z,99.90
2019-05-28T06:13:29.511Z,99.90
2019-05-28T06:16:01.175Z,99.90
2019-05-28T06:18:32.164Z,99.90
2019-05-28T06:21:12.347Z,99.90
2019-05-28T06:23:37.242Z,99.90
2019-05-28T06:26:08.217Z,99.90
2019-05-28T06:28:39.601Z,99.90
2019-05-28T06:31:11.285Z,99.90
2019-05-28T06:33:55.738Z,99.90
2019-05-28T06:36:16.151Z,99.90
2019-05-28T06:38:48.010Z,99.90
2019-05-28T06:41:19.709Z,99.90
2019-05-28T06:43:51.219Z,99.90
2019-05-28T06:46:22.843Z,99.90
2019-05-28T06:48:54.700Z,99.90
2019-05-28T06:51:25.468Z,99.90
2019-05-28T06:53:57.121Z,99.90
2019-05-28T06:56:28.662Z,99.90
2019-05-28T06:59:00.661Z,99.90
2019-05-28T07:01:31.954Z,99.90
2019-05-28T07:04:13.336Z,99.90
2019-05-28T07:06:36.926Z,99.90
2019-05-28T07:09:09.484Z,99.90
2019-05-28T07:11:41.084Z,99.90
2019-05-28T07:14:12.824Z,99.90
2019-05-28T07:16:53.345Z,99.90
2019-05-28T07:19:24.551Z,99.90
2019-05-28T07:21:51.049Z,99.90
2019-05-28T07:24:22.823Z,99.90
2019-05-28T07:26:54.057Z,99.90
2019-05-28T07:29:25.657Z,99.90
2019-05-28T07:31:57.550Z,99.90
2019-05-28T07:34:31.318Z,99.90
2019-05-28T07:37:01.896Z,99.90
2019-05-28T07:39:33.518Z,99.90
2019-05-28T07:42:05.109Z,99.90
2019-05-28T07:44:36.343Z,99.90
2019-05-28T07:47:11.064Z,99.90
2019-05-28T07:49:40.935Z,99.90
2019-05-28T07:52:12.586Z,99.90
2019-05-28T07:54:44.630Z,99.90
2019-05-28T07:57:16.298Z,99.90
2019-05-28T07:59:47.859Z,99.90
2019-05-28T08:02:19.451Z,99.90
2019-05-28T08:04:51.303Z,99.90
2019-05-28T08:07:22.864Z,99.90
2019-05-28T08:09:54.432Z,99.90
2019-05-28T08:12:25.975Z,99.90
2019-05-28T08:14:57.534Z,99.90
2019-05-28T08:17:29.396Z,99.90
2019-05-28T08:20:00.374Z,99.90
2019-05-28T08:22:41.587Z,99.90
2019-05-28T08:25:20.127Z,99.90
2019-05-28T08:27:38.100Z,99.90
2019-05-28T08:30:09.814Z,99.90
2019-05-28T08:32:40.898Z,99.90
2019-05-28T08:35:12.344Z,99.90
2019-05-28T08:37:43.589Z,99.90
2019-05-28T08:40:15.059Z,99.90
2019-05-28T08:42:46.383Z,99.90
2019-05-28T08:45:18.389Z,99.90
2019-05-28T08:47:49.945Z,99.90
2019-05-28T08:50:33.662Z,99.90
2019-05-28T08:52:54.821Z,99.90
2019-05-28T08:55:26.662Z,99.90
2019-05-28T08:58:01.563Z,99.90
2019-05-28T09:00:42.883Z,99.90
2019-05-28T09:03:14.939Z,99.90
2019-05-28T09:05:46.362Z,99.90
2019-05-28T09:08:17.685Z,99.90
2019-05-28T09:10:50.024Z,99.90
2019-05-28T09:13:21.661Z,99.90
2019-05-28T09:15:53.681Z,99.90
2019-05-28T09:18:24.953Z,99.90
2019-05-28T09:20:56.523Z,99.90
2019-05-28T09:23:28.316Z,99.90
2019-05-28T09:26:00.199Z,99.90
2019-05-28T09:28:31.584Z,99.90
2019-05-28T09:31:03.318Z,99.90
2019-05-28T09:33:35.178Z,99.90
2019-05-28T09:36:09.243Z,99.90
2019-05-28T09:38:40.433Z,99.90
2019-05-28T09:41:12.069Z,99.90
2019-05-28T09:43:43.329Z,99.90
2019-05-28T09:46:15.163Z,99.90
2019-05-28T09:48:46.622Z,99.90
2019-05-28T09:51:17.850Z,99.90
2019-05-28T09:53:49.177Z,99.90
2019-05-28T09:56:21.124Z,99.90
2019-05-28T09:58:52.429Z,99.90
2019-05-28T10:01:24.109Z,99.90
2019-05-28T10:03:55.772Z,99.90
2019-05-28T10:06:36.740Z,99.90
2019-05-28T10:08:59.930Z,99.90
2019-05-28T10:11:30.803Z,99.90
2019-05-28T10:14:02.372Z,99.90
2019-05-28T10:16:34.374Z,99.90
2019-05-28T10:19:06.042Z,99.90
2019-05-28T10:21:37.664Z,99.90
2019-05-28T10:24:08.951Z,99.90
2019-05-28T10:26:39.635Z,99.90
2019-05-28T10:29:11.160Z,99.90
2019-05-28T10:31:42.484Z,99.90
2019-05-28T10:34:14.026Z,99.90
2019-05-28T10:36:45.764Z,99.90
2019-05-28T10:39:17.010Z,99.90
2019-05-28T10:41:48.884Z,99.90
2019-05-28T10:44:20.722Z,99.90
2019-05-28T10:46:52.243Z,99.90
2019-05-28T10:49:24.136Z,99.90
2019-05-28T10:51:56.267Z,99.90
2019-05-28T10:54:27.549Z,99.90
2019-05-28T10:56:59.320Z,99.90
2019-05-28T10:59:30.310Z,99.90
2019-05-28T11:02:01.956Z,99.90
2019-05-28T11:04:33.535Z,99.90
2019-05-28T11:07:05.579Z,99.90
2019-05-28T11:09:37.657Z,99.90
2019-05-28T11:12:09.422Z,99.90
2019-05-28T11:14:41.924Z,99.90
2019-05-28T11:17:14.334Z,99.90
2019-05-28T11:19:46.232Z,99.90
2019-05-28T11:22:23.101Z,99.90
2019-05-28T11:24:56.273Z,99.90
2019-05-28T11:27:28.314Z,99.90
2019-05-28T11:29:59.580Z,99.90
2019-05-28T11:32:30.592Z,99.90
2019-05-28T11:35:02.213Z,99.90
2019-05-28T11:37:34.067Z,99.90
2019-05-28T11:40:06.727Z,99.90
2019-05-28T11:42:38.156Z,99.90
2019-05-28T11:45:11.664Z,99.90
2019-05-28T11:47:44.004Z,99.90
2019-05-28T11:50:15.809Z,99.90
2019-05-28T11:52:47.767Z,99.90
2019-05-28T11:55:19.730Z,99.90
2019-05-28T11:57:51.275Z,99.90
2019-05-28T12:00:25.365Z,99.90
2019-05-28T12:02:56.846Z,99.90
2019-05-28T12:05:27.668Z,99.90
2019-05-28T12:07:59.204Z,99.90
2019-05-28T12:10:30.557Z,99.90
2019-05-28T12:13:02.506Z,99.90
2019-05-28T12:15:34.110Z,99.90
2019-05-28T12:18:05.379Z,99.90
2019-05-28T12:20:37.043Z,99.90
2019-05-28T12:23:11.615Z,99.90
2019-05-28T12:25:41.574Z,99.90
2019-05-28T12:28:12.828Z,99.90
2019-05-28T12:30:44.270Z,99.90
2019-05-28T12:33:15.887Z,99.90
2019-05-28T12:35:47.156Z,99.90
2019-05-28T12:38:18.400Z,99.90
2019-05-28T12:40:50.127Z,99.90
2019-05-28T12:43:21.526Z,99.90
2019-05-28T12:45:52.767Z,99.90
2019-05-28T12:48:24.051Z,99.90
2019-05-28T12:50:55.617Z,99.90
2019-05-28T12:53:26.600Z,99.90
2019-05-28T12:55:57.956Z,99.90
2019-05-28T12:58:41.820Z,99.90
2019-05-28T13:01:02.936Z,99.90
2019-05-28T13:03:34.275Z,99.90
2019-05-28T13:06:06.308Z,99.90
2019-05-28T13:08:38.166Z,97.80
2019-05-28T13:11:09.602Z,99.60
2019-05-28T13:13:40.933Z,99.10
2019-05-28T13:16:12.162Z,98.50
2019-05-28T13:18:43.412Z,99.90
2019-05-28T13:21:14.687Z,99.20
2019-05-28T13:23:48.850Z,98.70
2019-05-28T13:26:20.064Z,99.90
2019-05-28T13:28:51.497Z,99.30
2019-05-28T13:31:22.450Z,99.90
2019-05-28T13:33:54.029Z,99.90
2019-05-28T13:39:17.684Z,99.90
2019-05-28T13:41:49.492Z,99.90
2019-05-28T13:44:20.809Z,99.90
2019-05-28T13:46:52.519Z,97.10
2019-05-28T13:49:23.421Z,98.00
2019-05-28T13:52:10.997Z,95.50
2019-05-28T13:54:28.110Z,96.90
2019-05-28T13:56:59.973Z,97.50
2019-05-28T13:59:31.496Z,96.20
2019-05-28T14:02:02.890Z,96.50
2019-05-28T14:04:34.481Z,93.90
2019-05-28T14:07:06.253Z,97.20
2019-05-28T14:09:37.230Z,97.00
2019-05-28T14:12:08.908Z,99.70
2019-05-28T14:14:40.434Z,97.50
2019-05-28T14:17:11.529Z,99.70
2019-05-28T14:19:43.322Z,99.90
2019-05-28T14:22:30.865Z,99.90
2019-05-28T14:24:48.004Z,99.90
2019-05-28T14:27:19.290Z,99.90
2019-05-28T14:29:51.176Z,99.90
2019-05-28T14:32:23.089Z,99.90
2019-05-28T14:34:55.133Z,99.90
2019-05-28T14:37:26.685Z,99.90
2019-05-28T14:39:58.350Z,99.90
2019-05-28T14:42:30.216Z,99.60
2019-05-28T14:45:01.241Z,99.90
2019-05-28T14:47:32.896Z,99.90
2019-05-28T14:50:04.195Z,99.90
2019-05-28T14:52:35.318Z,98.10
2019-05-28T14:55:07.557Z,98.70
2019-05-28T14:57:39.132Z,99.70
2019-05-28T15:00:11.144Z,99.80
2019-05-28T15:02:42.890Z,99.90
2019-05-28T15:05:14.966Z,99.90
2019-05-28T15:07:47.499Z,99.90
2019-05-28T15:10:19.736Z,99.90
2019-05-28T15:12:52.058Z,99.90
2019-05-28T15:15:35.141Z,99.70
2019-05-28T15:17:57.803Z,99.20
2019-05-28T15:20:29.180Z,99.20
2019-05-28T15:23:00.449Z,99.70
2019-05-28T15:25:32.459Z,99.90
2019-05-28T15:28:04.310Z,99.90
2019-05-28T15:30:35.615Z,99.90
2019-05-28T15:33:06.297Z,99.90
2019-05-28T15:35:38.027Z,99.90
2019-05-28T15:38:10.214Z,99.90
2019-05-28T15:40:42.222Z,99.90
2019-05-28T15:43:14.019Z,99.90
2019-05-28T15:45:45.579Z,99.40
2019-05-28T15:48:16.840Z,99.90
2019-05-28T15:50:48.132Z,99.90
2019-05-28T15:53:19.383Z,99.70
2019-05-28T15:55:50.367Z,99.20
2019-05-28T15:58:22.119Z,98.50
2019-05-28T16:00:53.214Z,98.00
2019-05-28T16:03:29.281Z,98.10
2019-05-28T16:06:00.634Z,94.50
2019-05-28T16:08:32.457Z,94.60
2019-05-28T16:11:04.004Z,94.40
2019-05-28T16:13:38.969Z,95.40
2019-05-28T16:16:11.479Z,94.70
2019-05-28T16:18:42.733Z,96.30
2019-05-28T16:21:14.487Z,97.40
2019-05-28T16:23:46.051Z,97.90
2019-05-28T16:26:17.611Z,97.90
2019-05-28T16:28:49.407Z,99.80
2019-05-28T16:31:21.355Z,98.00
2019-05-28T16:33:53.128Z,99.50
2019-05-28T16:36:24.701Z,99.30
2019-05-28T16:38:56.274Z,99.90
2019-05-28T16:41:27.871Z,99.90
2019-05-28T16:43:59.516Z,99.50
2019-05-28T16:46:30.825Z,99.90
2019-05-28T16:49:02.781Z,98.50
2019-05-28T16:51:34.152Z,99.00
2019-05-28T16:54:18.585Z,98.60
2019-05-28T16:56:39.858Z,98.20
2019-05-28T16:59:11.914Z,99.70
2019-05-28T17:01:44.524Z,98.90
2019-05-28T17:04:16.956Z,97.70
2019-05-28T17:06:48.121Z,97.50
2019-05-28T17:09:20.388Z,97.40
2019-05-28T17:11:51.973Z,95.50
2019-05-28T17:14:26.978Z,95.70
2019-05-28T17:16:57.285Z,95.10
2019-05-28T17:19:29.111Z,93.10
2019-05-28T17:22:01.040Z,93.70
2019-05-28T17:24:32.783Z,92.90
2019-05-28T17:27:05.014Z,94.20
2019-05-28T17:29:36.054Z,94.70
2019-05-28T17:32:07.893Z,95.00
2019-05-28T17:34:39.771Z,94.70
2019-05-28T17:37:11.473Z,94.50
2019-05-28T17:39:42.855Z,94.70
2019-05-28T17:42:14.596Z,94.90
2019-05-28T17:44:47.380Z,96.60
2019-05-28T17:47:18.908Z,96.10
2019-05-28T17:49:51.286Z,96.50
2019-05-28T17:52:23.156Z,96.40
2019-05-28T17:54:54.855Z,97.00
2019-05-28T17:57:26.629Z,98.20
2019-05-28T17:59:59.025Z,98.30
2019-05-28T18:02:30.943Z,98.40
2019-05-28T18:05:02.543Z,99.50
2019-05-28T18:07:35.285Z,99.90
2019-05-28T18:10:08.504Z,99.90
2019-05-28T18:12:40.513Z,99.90
2019-05-28T18:15:12.699Z,99.90
2019-05-28T18:17:45.196Z,99.90
2019-05-28T18:20:17.054Z,99.90
2019-05-28T18:22:49.579Z,99.90
2019-05-28T18:25:20.991Z,99.90
2019-05-28T18:27:53.311Z,99.90
2019-05-28T18:30:24.798Z,99.90
2019-05-28T18:32:56.262Z,99.90
2019-05-28T18:35:28.221Z,99.90
2019-05-28T18:38:03.960Z,99.90
2019-05-28T18:40:34.626Z,99.90
2019-05-28T18:43:06.478Z,99.90
2019-05-28T18:45:38.009Z,99.90
2019-05-28T18:48:09.734Z,99.90
2019-05-28T18:50:41.404Z,99.90
2019-05-28T18:53:13.385Z,99.90
2019-05-28T18:55:44.441Z,99.90
2019-05-28T18:58:16.200Z,99.90
2019-05-28T19:00:48.193Z,99.90
2019-05-28T19:03:20.398Z,99.90
2019-05-28T19:05:52.371Z,99.90
2019-05-28T19:08:42.719Z,99.90
2019-05-28T19:11:15.084Z,99.90
2019-05-28T19:13:47.386Z,99.90
2019-05-28T19:16:19.410Z,99.90
2019-05-28T19:18:55.154Z,99.90
2019-05-28T19:21:24.908Z,99.90
2019-05-28T19:23:56.786Z,99.90
2019-05-28T19:26:28.015Z,99.90
2019-05-28T19:28:59.774Z,99.90
2019-05-28T19:31:31.824Z,99.90
2019-05-28T19:34:03.208Z,99.90
2019-05-28T19:36:34.854Z,99.90
2019-05-28T19:39:08.965Z,99.90
2019-05-28T19:41:53.834Z,99.90
2019-05-28T19:44:13.613Z,99.90
2019-05-28T19:46:45.554Z,99.90
2019-05-28T19:49:17.054Z,99.90
2019-05-28T19:51:49.450Z,99.90
2019-05-28T19:54:22.170Z,99.90
2019-05-28T19:56:54.399Z,99.90
2019-05-28T19:59:26.262Z,99.90
2019-05-28T20:01:57.795Z,99.90
2019-05-28T20:04:29.055Z,99.90
2019-05-28T20:07:00.647Z,99.90
2019-05-28T20:09:32.385Z,99.90
2019-05-28T20:12:12.039Z,99.90
2019-05-28T20:14:37.673Z,99.90
2019-05-28T20:17:09.780Z,99.90
2019-05-28T20:19:41.603Z,99.90
2019-05-28T20:22:12.619Z,99.90
2019-05-28T20:24:45.546Z,99.90
2019-05-28T20:27:17.696Z,99.90
2019-05-28T20:29:49.254Z,99.90
2019-05-28T20:32:21.246Z,99.90
2019-05-28T20:34:52.842Z,99.90
2019-05-28T20:37:25.049Z,99.90
2019-05-28T20:39:57.130Z,99.90
2019-05-28T20:42:28.592Z,99.90
2019-05-28T20:45:02.357Z,99.90
2019-05-28T20:47:34.328Z,99.90
2019-05-28T20:50:07.622Z,99.90
2019-05-28T20:52:38.677Z,99.90
2019-05-28T20:55:11.245Z,99.90
2019-05-28T20:57:42.816Z,99.90
2019-05-28T21:00:15.347Z,99.90
2019-05-28T21:02:47.610Z,99.90
2019-05-28T21:05:18.755Z,99.90
2019-05-28T21:07:50.301Z,99.90
2019-05-28T21:10:21.594Z,99.90
2019-05-28T21:12:52.769Z,99.90
2019-05-28T21:15:24.626Z,99.90
2019-05-28T21:17:57.362Z,99.90
2019-05-28T21:20:29.199Z,99.90
2019-05-28T21:23:01.260Z,99.90
2019-05-28T21:25:31.959Z,99.90
2019-05-28T21:28:02.909Z,99.90
2019-05-28T21:30:34.525Z,99.90
2019-05-28T21:33:05.811Z,99.90
2019-05-28T21:35:36.844Z,99.90
2019-05-28T21:38:08.247Z,99.90
2019-05-28T21:40:39.998Z,99.90
2019-05-28T21:43:11.950Z,99.90
2019-05-28T21:45:43.543Z,99.90
2019-05-28T21:48:15.126Z,99.90
2019-05-28T21:50:46.092Z,99.90
2019-05-28T21:53:17.110Z,99.90
2019-05-28T21:55:48.798Z,99.90
2019-05-28T21:58:20.525Z,99.90
2019-05-28T22:01:00.071Z,99.90
2019-05-28T22:03:30.988Z,99.90
2019-05-28T22:06:03.477Z,99.90
2019-05-28T22:08:35.616Z,99.90
2019-05-28T22:11:07.996Z,99.90
2019-05-28T22:13:39.955Z,99.90
2019-05-28T22:16:11.262Z,99.90
2019-05-28T22:18:42.793Z,99.90
2019-05-28T22:21:14.370Z,99.90
2019-05-28T22:23:46.060Z,99.90
2019-05-28T22:26:17.349Z,99.90
2019-05-28T22:28:48.635Z,99.90
2019-05-28T22:31:19.617Z,99.90
2019-05-28T22:33:50.948Z,99.90
2019-05-28T22:36:22.250Z,99.90
2019-05-28T22:39:09.325Z,99.90
2019-05-28T22:41:43.047Z,99.90
2019-05-28T22:44:14.940Z,99.90
2019-05-28T22:46:46.184Z,99.90
2019-05-28T22:49:17.444Z,99.90
2019-05-28T22:51:49.020Z,99.90
2019-05-28T22:54:20.291Z,99.90
2019-05-28T22:56:51.573Z,99.90
2019-05-28T22:59:23.098Z,99.90
2019-05-28T23:01:54.657Z,99.90
2019-05-28T23:04:25.948Z,99.90
2019-05-28T23:06:57.230Z,99.90
2019-05-28T23:09:28.775Z,99.90
2019-05-28T23:12:01.600Z,99.90
2019-05-28T23:14:32.560Z,99.90
2019-05-28T23:17:04.191Z,99.90
2019-05-28T23:19:35.754Z,99.90
2019-05-28T23:22:08.959Z,99.90
2019-05-28T23:24:40.627Z,99.90
2019-05-28T23:27:12.515Z,99.90
2019-05-28T23:29:43.816Z,99.90
2019-05-28T23:32:14.745Z,99.90
2019-05-28T23:34:46.251Z,99.90
2019-05-28T23:37:17.808Z,99.90
2019-05-28T23:39:48.722Z,99.90
2019-05-28T23:42:19.980Z,99.90
2019-05-28T23:44:52.100Z,99.90
2019-05-28T23:47:23.650Z,99.90
2019-05-28T23:49:55.683Z,99.90
2019-05-28T23:52:27.265Z,99.90
2019-05-28T23:54:58.778Z,99.90
2019-05-28T23:57:30.653Z,99.90
